createdAt,value
2022-07-26T00:02:06.384Z,13.07
2022-07-26T00:04:52.900Z,10.33
2022-07-26T00:07:40.996Z,10.00
2022-07-26T00:10:28.008Z,13.90
2022-07-26T00:13:14.690Z,15.50
2022-07-26T00:16:01.207Z,8.23
2022-07-26T00:18:48.032Z,15.13
2022-07-26T00:21:34.702Z,10.10
2022-07-26T00:24:22.873Z,8.73
2022-07-26T00:27:09.837Z,11.53
2022-07-26T00:29:56.455Z,15.40
2022-07-26T00:32:43.481Z,10.87
2022-07-26T00:35:30.270Z,13.13
2022-07-26T00:38:18.079Z,19.13
2022-07-26T00:41:07.340Z,10.87
2022-07-26T00:43:58.834Z,11.17
2022-07-26T00:46:45.907Z,11.50
2022-07-26T00:49:33.120Z,11.37
2022-07-26T00:52:19.618Z,10.63
2022-07-26T00:55:07.742Z,9.07
2022-07-26T00:57:55.817Z,11.50
2022-07-26T01:00:42.472Z,14.10
2022-07-26T01:03:30.335Z,12.13
2022-07-26T01:06:27.354Z,10.83
2022-07-26T01:09:15.388Z,10.60
2022-07-26T01:12:01.878Z,11.80
2022-07-26T01:14:50.178Z,11.43
2022-07-26T01:17:38.258Z,12.10
2022-07-26T01:20:25.017Z,13.43
2022-07-26T01:23:13.497Z,13.97
2022-07-26T01:26:00.404Z,13.03
2022-07-26T01:28:49.478Z,10.27
2022-07-26T01:31:36.129Z,13.10
2022-07-26T01:34:22.884Z,14.03
2022-07-26T01:37:09.522Z,11.60
2022-07-26T01:39:57.693Z,12.47
2022-07-26T01:42:44.557Z,10.30
2022-07-26T01:45:31.872Z,14.70
2022-07-26T01:48:18.845Z,10.60
2022-07-26T01:51:05.441Z,11.20
2022-07-26T01:53:52.148Z,12.43
2022-07-26T01:56:40.275Z,9.07
2022-07-26T01:59:26.758Z,11.73
2022-07-26T02:02:13.880Z,12.23
2022-07-26T02:05:00.489Z,11.70
2022-07-26T02:07:47.444Z,7.90
2022-07-26T02:10:52.866Z,11.23
2022-07-26T02:13:42.468Z,11.20
2022-07-26T02:16:29.154Z,9.77
2022-07-26T02:19:15.775Z,12.60
2022-07-26T02:22:02.876Z,11.13
2022-07-26T02:24:49.483Z,11.53
2022-07-26T02:27:36.801Z,9.20
2022-07-26T02:30:24.927Z,7.13
2022-07-26T02:33:11.669Z,10.30
2022-07-26T02:35:58.789Z,14.23
2022-07-26T02:38:45.560Z,8.90
2022-07-26T02:41:32.537Z,10.43
2022-07-26T02:44:19.178Z,9.53
2022-07-26T02:47:07.438Z,11.07
2022-07-26T02:49:54.248Z,7.90
2022-07-26T02:52:41.036Z,9.23
2022-07-26T02:55:28.681Z,13.43
2022-07-26T02:58:15.292Z,8.13
2022-07-26T03:01:02.011Z,11.40
2022-07-26T03:03:51.029Z,9.70
2022-07-26T03:06:38.112Z,11.00
2022-07-26T03:09:25.202Z,10.43
2022-07-26T03:12:11.593Z,13.80
2022-07-26T03:14:58.468Z,11.37
2022-07-26T03:17:45.263Z,8.43
2022-07-26T03:20:33.568Z,12.10
2022-07-26T03:23:20.399Z,12.67
2022-07-26T03:26:07.499Z,14.90
2022-07-26T03:28:54.164Z,14.13
2022-07-26T03:31:40.970Z,10.43
2022-07-26T03:34:27.542Z,11.00
2022-07-26T03:37:15.760Z,11.17
2022-07-26T03:40:02.410Z,12.23
2022-07-26T03:42:49.701Z,12.00
2022-07-26T03:45:36.959Z,11.40
2022-07-26T03:48:23.670Z,13.67
2022-07-26T03:51:10.398Z,14.20
2022-07-26T03:53:58.618Z,10.83
2022-07-26T03:56:45.170Z,14.07
2022-07-26T03:59:31.948Z,12.13
2022-07-26T04:02:18.991Z,13.73
2022-07-26T04:05:06.734Z,11.97
2022-07-26T04:07:54.821Z,13.53
2022-07-26T04:10:51.331Z,17.60
2022-07-26T04:13:38.142Z,11.00
2022-07-26T04:16:25.214Z,11.83
2022-07-26T04:19:12.250Z,13.27
2022-07-26T04:22:00.710Z,14.03
2022-07-26T04:24:48.698Z,21.33
2022-07-26T04:27:41.662Z,14.83
2022-07-26T04:30:31.034Z,8.03
2022-07-26T04:33:18.440Z,9.13
2022-07-26T04:36:07.341Z,9.57
2022-07-26T04:38:54.009Z,9.77
2022-07-26T04:41:40.683Z,9.67
2022-07-26T04:44:28.952Z,11.40
2022-07-26T04:47:15.345Z,10.90
2022-07-26T04:50:03.065Z,11.77
2022-07-26T04:52:54.059Z,13.07
2022-07-26T04:55:46.032Z,11.70
2022-07-26T04:58:36.185Z,10.83
2022-07-26T05:01:28.834Z,10.47
2022-07-26T05:04:16.952Z,7.87
2022-07-26T05:07:04.500Z,10.80
2022-07-26T05:09:51.193Z,11.73
2022-07-26T05:12:38.228Z,12.43
2022-07-26T05:15:34.916Z,10.80
2022-07-26T05:18:23.464Z,7.90
2022-07-26T05:21:10.582Z,10.90
2022-07-26T05:23:57.115Z,7.43
2022-07-26T05:26:44.045Z,8.77
2022-07-26T05:29:31.041Z,7.07
2022-07-26T05:32:18.634Z,10.27
2022-07-26T05:35:08.120Z,10.60
2022-07-26T05:37:54.539Z,9.73
2022-07-26T05:40:44.821Z,8.37
2022-07-26T05:43:41.500Z,10.73
2022-07-26T05:46:28.831Z,8.17
2022-07-26T05:49:15.551Z,7.50
2022-07-26T05:52:03.607Z,8.50
2022-07-26T05:54:50.357Z,8.07
2022-07-26T05:57:37.266Z,8.97
2022-07-26T06:00:23.996Z,10.70
2022-07-26T06:03:23.256Z,8.50
2022-07-26T06:06:09.985Z,11.33
2022-07-26T06:08:58.174Z,8.87
2022-07-26T06:11:47.260Z,10.77
2022-07-26T06:14:34.536Z,9.37
2022-07-26T06:17:20.999Z,10.70
2022-07-26T06:20:08.729Z,7.77
2022-07-26T06:22:58.162Z,5.63
2022-07-26T06:25:46.248Z,10.23
2022-07-26T06:28:35.793Z,10.83
2022-07-26T06:31:23.320Z,9.20
2022-07-26T06:34:10.525Z,4.93
2022-07-26T06:36:57.515Z,6.83
2022-07-26T06:39:44.377Z,6.30
2022-07-26T06:42:33.208Z,5.87
2022-07-26T06:45:19.873Z,8.17
2022-07-26T06:48:07.004Z,5.27
2022-07-26T06:50:53.416Z,5.40
2022-07-26T06:53:40.211Z,7.30
2022-07-26T06:56:30.987Z,5.30
2022-07-26T06:59:23.080Z,8.13
2022-07-26T07:02:09.957Z,6.47
2022-07-26T07:04:56.441Z,8.57
2022-07-26T07:07:43.225Z,5.27
2022-07-26T07:10:34.170Z,8.70
2022-07-26T07:13:22.282Z,4.87
2022-07-26T07:16:10.524Z,8.67
2022-07-26T07:18:56.943Z,6.80
2022-07-26T07:21:46.686Z,10.67
2022-07-26T07:24:33.743Z,4.77
2022-07-26T07:27:20.985Z,5.60
2022-07-26T07:30:10.973Z,10.53
2022-07-26T07:32:59.223Z,6.97
2022-07-26T07:35:45.946Z,7.77
2022-07-26T07:38:32.621Z,6.47
2022-07-26T07:41:23.800Z,6.77
2022-07-26T07:44:11.066Z,7.70
2022-07-26T07:46:58.021Z,8.47
2022-07-26T07:49:46.051Z,12.00
2022-07-26T07:52:32.811Z,8.20
2022-07-26T07:55:40.712Z,6.50
2022-07-26T07:58:28.030Z,7.07
2022-07-26T08:01:14.665Z,5.47
2022-07-26T08:04:01.512Z,4.37
2022-07-26T08:06:51.108Z,2.93
2022-07-26T08:09:43.098Z,6.17
2022-07-26T08:12:30.033Z,5.07
2022-07-26T08:15:16.665Z,4.30
2022-07-26T08:18:06.516Z,5.17
2022-07-26T08:20:55.544Z,7.50
2022-07-26T08:23:43.404Z,3.43
2022-07-26T08:26:29.936Z,8.30
2022-07-26T08:29:17.003Z,4.23
2022-07-26T08:32:03.736Z,8.10
2022-07-26T08:34:50.532Z,6.77
2022-07-26T08:37:37.395Z,6.20
2022-07-26T08:40:26.986Z,4.60
2022-07-26T08:43:14.723Z,2.10
2022-07-26T08:46:04.520Z,3.87
2022-07-26T08:48:51.601Z,9.23
2022-07-26T08:51:39.939Z,3.30
2022-07-26T08:54:27.289Z,5.60
2022-07-26T08:57:15.390Z,5.23
2022-07-26T09:00:19.323Z,2.60
2022-07-26T09:03:06.039Z,4.03
2022-07-26T09:05:54.719Z,7.23
2022-07-26T09:08:41.623Z,2.47
2022-07-26T09:11:33.480Z,2.47
2022-07-26T09:14:21.499Z,1.60
2022-07-26T09:17:08.332Z,3.93
2022-07-26T09:20:07.885Z,3.30
2022-07-26T09:23:01.586Z,3.10
2022-07-26T09:25:48.668Z,3.47
2022-07-26T09:28:35.393Z,2.73
2022-07-26T09:31:24.336Z,3.80
2022-07-26T09:34:11.277Z,6.33
2022-07-26T09:36:58.231Z,8.43
2022-07-26T09:39:57.154Z,1.83
2022-07-26T09:42:56.239Z,5.57
2022-07-26T09:45:43.576Z,10.13
2022-07-26T09:48:52.170Z,2.63
2022-07-26T09:51:40.790Z,3.47
2022-07-26T09:54:33.527Z,1.90
2022-07-26T09:57:22.100Z,3.83
2022-07-26T10:00:10.229Z,7.63
2022-07-26T10:02:56.914Z,6.30
2022-07-26T10:05:44.978Z,2.73
2022-07-26T10:08:31.799Z,3.47
2022-07-26T10:11:20.104Z,3.53
2022-07-26T10:14:39.079Z,4.33
2022-07-26T10:17:46.531Z,4.40
2022-07-26T10:20:46.745Z,5.23
2022-07-26T10:23:44.026Z,2.33
2022-07-26T10:26:43.338Z,5.33
2022-07-26T10:29:31.399Z,2.40
2022-07-26T10:32:20.487Z,2.37
2022-07-26T10:35:31.331Z,8.77
2022-07-26T10:38:26.182Z,2.33
2022-07-26T10:41:13.061Z,2.83
2022-07-26T10:44:21.203Z,9.67
2022-07-26T10:47:18.607Z,6.03
2022-07-26T10:50:05.792Z,4.67
2022-07-26T10:52:59.928Z,5.23
2022-07-26T10:55:49.984Z,3.97
2022-07-26T10:58:44.401Z,9.20
2022-07-26T11:01:34.764Z,5.20
2022-07-26T11:04:22.615Z,4.60
2022-07-26T11:07:09.148Z,1.77
2022-07-26T11:09:56.872Z,4.60
2022-07-26T11:12:45.169Z,2.43
2022-07-26T11:15:31.987Z,6.17
2022-07-26T11:18:22.494Z,4.13
2022-07-26T11:21:11.074Z,4.30
2022-07-26T11:24:03.348Z,5.13
2022-07-26T11:26:50.555Z,4.93
2022-07-26T11:29:40.740Z,3.37
2022-07-26T11:32:28.366Z,2.50
2022-07-26T11:35:14.969Z,2.33
2022-07-26T11:38:11.793Z,3.97
2022-07-26T11:40:59.241Z,3.03
2022-07-26T11:43:46.195Z,5.57
2022-07-26T11:46:36.832Z,1.60
2022-07-26T11:49:41.439Z,1.93
2022-07-26T11:52:32.587Z,6.17
2022-07-26T11:55:27.391Z,6.67
2022-07-26T11:58:14.189Z,3.60
2022-07-26T12:01:00.921Z,5.27
2022-07-26T12:03:52.272Z,12.50
2022-07-26T12:06:40.172Z,4.27
2022-07-26T12:09:32.315Z,9.53
2022-07-26T12:12:24.271Z,6.83
2022-07-26T12:15:12.627Z,2.97
2022-07-26T12:17:59.809Z,7.93
2022-07-26T12:21:04.630Z,4.57
2022-07-26T12:23:53.208Z,3.20
2022-07-26T12:26:40.945Z,5.60
2022-07-26T12:29:33.194Z,7.87
2022-07-26T12:32:21.248Z,5.03
2022-07-26T12:35:09.406Z,5.23
2022-07-26T12:37:57.364Z,4.57
2022-07-26T12:40:44.091Z,4.37
2022-07-26T12:43:40.223Z,4.87
2022-07-26T12:46:27.105Z,4.40
2022-07-26T12:49:14.236Z,4.03
2022-07-26T12:52:00.900Z,4.53
2022-07-26T12:54:50.815Z,3.20
2022-07-26T12:57:37.724Z,3.60
2022-07-26T13:00:28.763Z,1.60
2022-07-26T13:03:16.546Z,0.80
2022-07-26T13:06:03.805Z,2.40
2022-07-26T13:08:51.214Z,2.93
2022-07-26T13:11:39.300Z,2.20
2022-07-26T13:14:25.902Z,2.43
2022-07-26T13:17:12.918Z,1.70
2022-07-26T13:19:59.395Z,1.77
2022-07-26T13:22:46.073Z,1.10
2022-07-26T13:25:38.289Z,2.00
2022-07-26T13:28:28.201Z,1.30
2022-07-26T13:31:15.371Z,2.63
2022-07-26T13:34:01.757Z,1.30
2022-07-26T13:36:49.048Z,1.37
2022-07-26T13:39:36.100Z,3.53
2022-07-26T13:42:22.881Z,1.57
2022-07-26T13:45:12.496Z,2.37
2022-07-26T13:48:00.113Z,1.73
2022-07-26T13:50:47.081Z,1.50
2022-07-26T13:53:33.562Z,3.17
2022-07-26T13:56:20.487Z,1.40
2022-07-26T13:59:07.217Z,1.73
2022-07-26T14:01:56.974Z,2.83
2022-07-26T14:04:43.673Z,1.40
2022-07-26T14:07:30.429Z,1.33
2022-07-26T14:10:17.582Z,4.20
2022-07-26T14:13:06.541Z,1.43
2022-07-26T14:15:53.777Z,1.83
2022-07-26T14:18:42.098Z,1.80
2022-07-26T14:21:47.318Z,0.93
2022-07-26T14:24:37.049Z,2.97
2022-07-26T14:27:24.056Z,0.70
2022-07-26T14:30:11.297Z,1.27
2022-07-26T14:32:58.263Z,2.87
2022-07-26T14:35:46.886Z,1.13
2022-07-26T14:38:33.776Z,0.80
2022-07-26T14:41:20.570Z,1.90
2022-07-26T14:44:07.680Z,0.80
2022-07-26T14:46:54.593Z,1.07
2022-07-26T14:49:41.452Z,3.50
2022-07-26T14:52:29.762Z,0.80
2022-07-26T14:55:24.558Z,2.77
2022-07-26T14:58:12.277Z,2.63
2022-07-26T15:00:58.779Z,2.90
2022-07-26T15:03:46.535Z,4.30
2022-07-26T15:06:33.808Z,3.13
2022-07-26T15:09:24.491Z,3.20
2022-07-26T15:12:13.511Z,1.03
2022-07-26T15:15:02.028Z,3.50
2022-07-26T15:17:50.727Z,2.17
2022-07-26T15:20:41.600Z,3.10
2022-07-26T15:23:32.866Z,2.10
2022-07-26T15:26:21.645Z,5.10
2022-07-26T15:29:08.410Z,2.00
2022-07-26T15:31:55.289Z,0.87
2022-07-26T15:34:42.098Z,0.83
2022-07-26T15:37:30.012Z,1.30
2022-07-26T15:40:16.536Z,0.70
2022-07-26T15:43:04.678Z,2.37
2022-07-26T15:45:55.502Z,1.37
2022-07-26T15:48:42.985Z,0.70
2022-07-26T15:51:30.397Z,1.50
2022-07-26T15:54:17.370Z,2.07
2022-07-26T15:57:04.467Z,1.87
2022-07-26T15:59:52.282Z,3.10
2022-07-26T16:02:40.286Z,1.27
2022-07-26T16:05:27.019Z,3.30
2022-07-26T16:08:13.899Z,3.70
2022-07-26T16:11:00.596Z,6.03
2022-07-26T16:13:47.422Z,1.80
2022-07-26T16:16:35.725Z,3.30
2022-07-26T16:19:22.361Z,2.23
2022-07-26T16:22:09.413Z,0.60
2022-07-26T16:24:56.475Z,1.77
2022-07-26T16:27:44.151Z,0.60
2022-07-26T16:30:30.615Z,4.53
2022-07-26T16:33:18.812Z,0.77
2022-07-26T16:36:06.612Z,0.60
2022-07-26T16:38:53.285Z,1.80
2022-07-26T16:41:40.010Z,2.00
2022-07-26T16:44:27.052Z,3.77
2022-07-26T16:47:13.976Z,2.47
2022-07-26T16:50:01.874Z,1.43
2022-07-26T16:52:48.582Z,3.70
2022-07-26T16:55:35.218Z,1.87
2022-07-26T16:58:22.863Z,2.03
2022-07-26T17:01:09.848Z,1.03
2022-07-26T17:03:56.232Z,4.03
2022-07-26T17:07:01.646Z,6.03
2022-07-26T17:09:51.274Z,2.30
2022-07-26T17:12:38.672Z,2.30
2022-07-26T17:15:25.423Z,3.73
2022-07-26T17:18:12.080Z,0.93
2022-07-26T17:20:59.585Z,3.93
2022-07-26T17:23:48.824Z,0.63
2022-07-26T17:26:37.510Z,0.90
2022-07-26T17:29:24.102Z,4.53
2022-07-26T17:32:11.642Z,0.60
2022-07-26T17:34:58.338Z,1.03
2022-07-26T17:37:45.029Z,1.60
2022-07-26T17:40:35.701Z,1.43
2022-07-26T17:43:25.292Z,1.13
2022-07-26T17:46:23.523Z,3.23
2022-07-26T17:49:10.208Z,1.03
2022-07-26T17:52:00.877Z,0.60
2022-07-26T17:54:54.044Z,1.07
2022-07-26T17:57:44.581Z,2.53
2022-07-26T18:00:31.630Z,0.97
2022-07-26T18:03:18.302Z,7.33
2022-07-26T18:06:06.652Z,3.70
2022-07-26T18:08:53.419Z,2.20
2022-07-26T18:11:41.464Z,5.50
2022-07-26T18:14:29.252Z,3.30
2022-07-26T18:17:16.059Z,1.70
2022-07-26T18:20:03.036Z,0.60
2022-07-26T18:22:56.198Z,2.87
2022-07-26T18:25:46.769Z,1.60
2022-07-26T18:28:33.605Z,1.40
2022-07-26T18:31:22.411Z,3.03
2022-07-26T18:34:09.459Z,1.67
2022-07-26T18:36:56.107Z,0.73
2022-07-26T18:39:42.923Z,2.27
2022-07-26T18:42:29.920Z,4.37
2022-07-26T18:45:16.813Z,3.20
2022-07-26T18:48:04.761Z,2.87
2022-07-26T18:50:52.587Z,0.93
2022-07-26T18:53:39.787Z,2.30
2022-07-26T18:56:28.049Z,2.47
2022-07-26T18:59:15.094Z,6.23
2022-07-26T19:02:04.013Z,2.10
2022-07-26T19:04:52.468Z,2.90
2022-07-26T19:07:39.785Z,6.23
2022-07-26T19:10:32.678Z,4.03
2022-07-26T19:13:19.154Z,0.67
2022-07-26T19:16:06.601Z,0.97
2022-07-26T19:18:57.351Z,1.03
2022-07-26T19:21:47.343Z,3.30
2022-07-26T19:24:34.153Z,5.23
2022-07-26T19:27:20.789Z,1.27
2022-07-26T19:30:10.996Z,4.57
2022-07-26T19:32:58.417Z,1.80
2022-07-26T19:35:45.912Z,3.50
2022-07-26T19:38:38.100Z,0.90
2022-07-26T19:41:30.176Z,1.00
2022-07-26T19:44:21.821Z,2.07
2022-07-26T19:47:14.690Z,1.80
2022-07-26T19:50:02.572Z,0.77
2022-07-26T19:52:51.387Z,0.80
2022-07-26T19:55:41.800Z,1.13
2022-07-26T19:58:29.347Z,1.70
2022-07-26T20:01:15.581Z,2.33
2022-07-26T20:04:03.092Z,5.07
2022-07-26T20:06:49.864Z,0.70
2022-07-26T20:09:36.439Z,0.80
2022-07-26T20:12:24.420Z,0.87
2022-07-26T20:15:12.495Z,2.53
2022-07-26T20:17:59.609Z,2.67
2022-07-26T20:20:46.883Z,3.33
2022-07-26T20:23:34.147Z,2.77
2022-07-26T20:26:21.818Z,3.07
2022-07-26T20:29:11.456Z,2.07
2022-07-26T20:31:58.222Z,1.80
2022-07-26T20:34:45.081Z,3.03
2022-07-26T20:37:32.160Z,3.00
2022-07-26T20:40:19.049Z,1.70
2022-07-26T20:43:06.667Z,2.53
2022-07-26T20:45:55.075Z,4.97
2022-07-26T20:48:43.522Z,3.30
2022-07-26T20:51:32.557Z,5.23
2022-07-26T20:54:19.276Z,1.13
2022-07-26T20:57:05.887Z,2.40
2022-07-26T20:59:54.868Z,5.60
2022-07-26T21:02:45.901Z,2.33
2022-07-26T21:05:32.898Z,2.90
2022-07-26T21:08:19.662Z,5.70
2022-07-26T21:11:06.620Z,2.97
2022-07-26T21:13:53.398Z,2.00
2022-07-26T21:16:40.229Z,4.93
2022-07-26T21:19:28.437Z,3.77
2022-07-26T21:22:15.422Z,3.53
2022-07-26T21:25:01.962Z,2.53
2022-07-26T21:27:49.019Z,3.07
2022-07-26T21:30:35.763Z,2.70
2022-07-26T21:33:22.510Z,3.57
2022-07-26T21:36:10.853Z,5.20
2022-07-26T21:38:57.460Z,2.40
2022-07-26T21:41:44.276Z,4.00
2022-07-26T21:44:31.081Z,1.30
2022-07-26T21:47:17.769Z,5.63
2022-07-26T21:50:05.198Z,4.67
2022-07-26T21:52:53.077Z,4.40
2022-07-26T21:55:39.998Z,10.77
2022-07-26T21:58:28.066Z,1.57
2022-07-26T22:01:15.839Z,10.60
2022-07-26T22:04:02.766Z,4.77
2022-07-26T22:06:49.618Z,4.87
2022-07-26T22:09:37.706Z,7.93
2022-07-26T22:12:24.570Z,5.10
2022-07-26T22:15:12.209Z,4.70
2022-07-26T22:18:00.343Z,2.43
2022-07-26T22:20:47.604Z,1.60
2022-07-26T22:23:34.450Z,9.07
2022-07-26T22:26:26.244Z,3.03
2022-07-26T22:29:13.033Z,4.10
2022-07-26T22:31:59.971Z,6.57
2022-07-26T22:34:46.769Z,2.40
2022-07-26T22:37:33.825Z,2.57
2022-07-26T22:40:21.221Z,5.80
2022-07-26T22:43:10.711Z,4.17
2022-07-26T22:45:57.213Z,2.60
2022-07-26T22:48:47.934Z,1.90
2022-07-26T22:51:34.634Z,2.67
2022-07-26T22:54:22.864Z,4.33
2022-07-26T22:57:09.681Z,7.80
2022-07-26T22:59:58.092Z,3.20
2022-07-26T23:02:45.231Z,8.30
2022-07-26T23:05:46.203Z,2.53
2022-07-26T23:08:46.874Z,2.50
2022-07-26T23:11:34.100Z,2.40
2022-07-26T23:14:22.298Z,5.57
2022-07-26T23:17:12.475Z,2.47
2022-07-26T23:20:03.062Z,5.70
2022-07-26T23:22:52.960Z,3.43
2022-07-26T23:25:41.345Z,8.03
2022-07-26T23:28:35.501Z,5.67
2022-07-26T23:31:26.067Z,5.67
2022-07-26T23:34:14.057Z,11.63
2022-07-26T23:37:01.038Z,4.07
2022-07-26T23:39:47.966Z,6.70
2022-07-26T23:42:34.712Z,4.43
2022-07-26T23:45:21.679Z,6.33
2022-07-26T23:48:08.516Z,3.03
2022-07-26T23:50:56.498Z,4.93
2022-07-26T23:53:43.559Z,7.23
2022-07-26T23:56:30.073Z,9.07
2022-07-26T23:59:16.772Z,7.20
